Time;durP1;ratioP1;P1;durP2;ratioP2;P2;SDS_P1;SDS_P2;PMS_P1;PMS_P2;Temp;Humidity;BMP_temperature;BMP_pressure;BME280_temperature;BME280_humidity;BME280_pressure;Samples;Min_cycle;Max_cycle;Signal;HPM_P1;HPM_P2
2022/04/05 00:00:52;;;;;;;1.88;1.65;;;;;16.00;100291.00;;;;5043950;28;20200;-80
2022/04/05 00:03:19;;;;;;;3.58;2.28;;;;;16.10;100293.00;;;;5054903;28;20195;-80
2022/04/05 00:05:47;;;;;;;2.58;2.10;;;;;16.10;100302.00;;;;5050122;28;20200;-79
2022/04/05 00:08:16;;;;;;;2.83;1.98;;;;;16.10;100300.00;;;;5051958;28;20215;-79
2022/04/05 00:10:43;;;;;;;3.50;2.05;;;;;16.10;100296.00;;;;5047703;28;20219;-80
2022/04/05 00:13:12;;;;;;;3.17;2.20;;;;;16.00;100292.00;;;;5057368;28;20662;-79
2022/04/05 00:15:39;;;;;;;3.40;2.25;;;;;16.00;100289.00;;;;5048574;28;20195;-79
2022/04/05 00:18:07;;;;;;;4.22;2.67;;;;;16.00;100302.00;;;;5054758;28;20241;-80
2022/04/05 00:20:34;;;;;;;2.88;2.17;;;;;16.00;100302.00;;;;5040209;28;20632;-79
2022/04/05 00:23:01;;;;;;;3.90;3.03;;;;;16.00;100307.00;;;;5048575;28;20568;-79
2022/04/05 00:25:29;;;;;;;3.92;2.47;;;;;16.00;100312.00;;;;5049244;28;20232;-79
2022/04/05 00:27:56;;;;;;;4.90;2.55;;;;;16.00;100313.00;;;;5050745;28;20198;-79
2022/04/05 00:30:25;;;;;;;4.25;2.65;;;;;15.90;100308.00;;;;5041701;28;20693;-79
2022/04/05 00:32:52;;;;;;;2.67;2.13;;;;;15.90;100315.00;;;;5044159;28;20203;-78
2022/04/05 00:35:21;;;;;;;3.00;2.20;;;;;15.90;100314.00;;;;5038986;28;20189;-79
2022/04/05 00:37:48;;;;;;;4.38;2.50;;;;;15.90;100322.00;;;;5038530;28;20227;-79
2022/04/05 00:40:22;;;;;;;2.75;1.67;;;;;15.80;100333.00;;;;5042085;28;20196;-79
2022/04/05 00:42:49;;;;;;;1.20;0.98;;;;;15.80;100332.00;;;;5049478;28;20191;-80
2022/04/05 00:45:16;;;;;;;0.95;0.70;;;;;15.80;100334.00;;;;5048252;28;20203;-79
2022/04/05 00:47:49;;;;;;;2.17;0.80;;;;;15.70;100336.00;;;;5049940;28;20211;-79
2022/04/05 00:50:21;;;;;;;1.05;0.50;;;;;15.70;100334.00;;;;5051497;28;20243;-80
2022/04/05 00:52:48;;;;;;;0.55;0.40;;;;;15.70;100334.00;;;;5046986;28;20192;-79
2022/04/05 00:55:18;;;;;;;1.20;0.60;;;;;15.60;100332.00;;;;5036042;28;20701;-79
2022/04/05 00:57:47;;;;;;;0.95;0.63;;;;;15.60;100333.00;;;;5048375;28;20329;-80
2022/04/05 01:00:15;;;;;;;1.38;0.55;;;;;15.60;100332.00;;;;5034393;28;20721;-79
2022/04/05 01:02:44;;;;;;;0.68;0.50;;;;;15.60;100333.00;;;;5046920;28;20206;-79
2022/04/05 01:05:12;;;;;;;0.68;0.45;;;;;15.60;100331.00;;;;5030602;28;20207;-80
2022/04/05 01:07:41;;;;;;;0.60;0.45;;;;;15.50;100335.00;;;;5040266;28;20228;-79
2022/04/05 01:10:10;;;;;;;0.52;0.35;;;;;15.50;100335.00;;;;5041957;28;20655;-80
2022/04/05 01:12:38;;;;;;;1.10;0.50;;;;;15.50;100340.00;;;;5048116;28;20711;-78
2022/04/05 01:15:06;;;;;;;0.82;0.32;;;;;15.50;100326.00;;;;5049107;28;20634;-79
2022/04/05 01:17:35;;;;;;;0.57;0.38;;;;;15.40;100333.00;;;;5052848;28;20204;-79
2022/04/05 01:20:05;;;;;;;1.40;0.70;;;;;15.40;100342.00;;;;5028237;28;20312;-79
2022/04/05 01:22:32;;;;;;;0.52;0.43;;;;;15.40;100346.00;;;;5034624;28;20250;-79
2022/04/05 01:25:01;;;;;;;0.30;0.25;;;;;15.30;100347.00;;;;5047137;28;20628;-79
2022/04/05 01:27:29;;;;;;;0.98;0.30;;;;;15.30;100352.00;;;;5045523;28;20662;-79
2022/04/05 01:29:56;;;;;;;0.43;0.25;;;;;15.20;100354.00;;;;5043212;28;20218;-79
2022/04/05 01:32:23;;;;;;;0.68;0.10;;;;;15.20;100350.00;;;;5043738;28;20200;-79
2022/04/05 01:34:51;;;;;;;0.55;0.40;;;;;15.20;100352.00;;;;5052490;28;20249;-79
2022/04/05 01:37:18;;;;;;;0.80;0.40;;;;;15.20;100354.00;;;;5043023;28;22113;-79
2022/04/05 01:39:45;;;;;;;1.10;0.20;;;;;15.10;100354.00;;;;5064557;28;20195;-79
2022/04/05 01:42:16;;;;;;;0.47;0.28;;;;;15.10;100354.00;;;;5050048;28;20226;-79
2022/04/05 01:44:45;;;;;;;0.85;0.40;;;;;15.20;100351.00;;;;5033029;28;20202;-79
2022/04/05 01:47:15;;;;;;;0.85;0.22;;;;;15.10;100346.00;;;;5036329;28;20937;-79
2022/04/05 01:49:44;;;;;;;1.35;0.47;;;;;15.10;100340.00;;;;5044264;28;20222;-79
2022/04/05 01:52:12;;;;;;;0.55;0.30;;;;;15.10;100342.00;;;;5047833;28;20219;-79
2022/04/05 01:54:40;;;;;;;1.65;0.70;;;;;15.10;100343.00;;;;5048698;28;20273;-79
2022/04/05 01:57:07;;;;;;;0.13;0.10;;;;;15.20;100349.00;;;;5056238;28;20192;-79
2022/04/05 01:59:37;;;;;;;0.60;0.38;;;;;15.10;100337.00;;;;5044726;28;20201;-80
2022/04/05 02:02:06;;;;;;;0.80;0.30;;;;;15.20;100337.00;;;;5037608;28;20207;-80
2022/04/05 02:04:33;;;;;;;0.55;0.13;;;;;15.20;100340.00;;;;5051193;28;20297;-80
2022/04/05 02:07:01;;;;;;;0.80;0.30;;;;;15.20;100351.00;;;;5048609;28;20211;-80
2022/04/05 02:09:28;;;;;;;0.40;0.30;;;;;15.20;100345.00;;;;5047216;28;20203;-80
2022/04/05 02:11:55;;;;;;;0.50;0.30;;;;;15.20;100348.00;;;;5045997;28;20203;-79
2022/04/05 02:14:23;;;;;;;0.30;0.20;;;;;15.20;100347.00;;;;5031764;28;20207;-79
2022/04/05 02:16:51;;;;;;;0.80;0.20;;;;;15.20;100344.00;;;;5049355;28;20204;-79
2022/04/05 02:19:19;;;;;;;0.20;0.13;;;;;15.20;100341.00;;;;5043997;28;20650;-79
2022/04/05 02:21:46;;;;;;;1.00;0.40;;;;;15.20;100340.00;;;;5047060;28;20663;-79
2022/04/05 02:24:13;;;;;;;1.05;0.40;;;;;15.20;100335.00;;;;5045511;28;20302;-79
2022/04/05 02:26:41;;;;;;;1.40;0.30;;;;;15.20;100335.00;;;;5061242;28;20893;-79
2022/04/05 02:29:08;;;;;;;2.47;0.30;;;;;15.20;100337.00;;;;5057035;28;20195;-79
2022/04/05 02:31:35;;;;;;;0.60;0.30;;;;;15.20;100340.00;;;;5060449;28;20584;-80
2022/04/05 02:34:04;;;;;;;0.43;0.40;;;;;15.20;100336.00;;;;5049827;28;20192;-80
2022/04/05 02:36:31;;;;;;;0.70;0.40;;;;;15.20;100343.00;;;;5045424;28;20193;-80
2022/04/05 02:38:58;;;;;;;1.08;0.55;;;;;15.20;100341.00;;;;5048280;28;20199;-80
2022/04/05 02:41:25;;;;;;;0.38;0.35;;;;;15.20;100343.00;;;;5050594;28;20225;-80
2022/04/05 02:43:53;;;;;;;0.90;0.63;;;;;15.20;100345.00;;;;5052376;28;20832;-79
2022/04/05 02:46:20;;;;;;;1.25;0.70;;;;;15.20;100343.00;;;;5054233;28;20195;-80
2022/04/05 02:48:48;;;;;;;0.50;0.40;;;;;15.20;100343.00;;;;5055658;28;20250;-80
2022/04/05 02:51:18;;;;;;;1.15;0.70;;;;;15.20;100346.00;;;;5054659;28;20218;-79
2022/04/05 02:53:46;;;;;;;1.85;1.15;;;;;15.20;100341.00;;;;5050331;28;20684;-80
2022/04/05 02:56:13;;;;;;;1.80;0.80;;;;;15.20;100342.00;;;;5050093;28;20208;-79
2022/04/05 02:58:41;;;;;;;1.27;1.08;;;;;15.20;100342.00;;;;5050379;28;20572;-79
2022/04/05 03:01:08;;;;;;;1.70;1.15;;;;;15.20;100335.00;;;;5044108;28;20196;-79
2022/04/05 03:03:36;;;;;;;1.50;1.08;;;;;15.20;100337.00;;;;5049469;28;20560;-79
2022/04/05 03:06:03;;;;;;;2.42;1.33;;;;;15.20;100340.00;;;;5046935;28;20978;-80
2022/04/05 03:08:32;;;;;;;1.63;1.08;;;;;15.20;100337.00;;;;5037700;28;20399;-80
2022/04/05 03:11:00;;;;;;;2.60;1.55;;;;;15.20;100344.00;;;;5045355;28;20246;-80
2022/04/05 03:13:27;;;;;;;2.00;1.42;;;;;15.10;100339.00;;;;5053964;28;20203;-80
2022/04/05 03:15:55;;;;;;;2.15;1.42;;;;;15.10;100335.00;;;;5055704;28;20199;-80
2022/04/05 03:18:22;;;;;;;1.95;1.58;;;;;15.10;100342.00;;;;5042975;28;20229;-79
2022/04/05 03:20:49;;;;;;;2.67;1.48;;;;;15.10;100339.00;;;;5062936;28;20564;-80
2022/04/05 03:23:16;;;;;;;3.35;2.13;;;;;15.10;100341.00;;;;5051174;28;20195;-79
2022/04/05 03:25:45;;;;;;;2.22;1.92;;;;;15.10;100337.00;;;;5050061;28;20200;-80
2022/04/05 03:28:12;;;;;;;2.00;1.73;;;;;15.20;100340.00;;;;5043916;28;20206;-80
2022/04/05 03:30:40;;;;;;;2.78;1.67;;;;;15.20;100341.00;;;;5047957;28;20261;-79
2022/04/05 03:33:07;;;;;;;2.67;1.83;;;;;15.20;100332.00;;;;5044936;28;20188;-79
2022/04/05 03:35:34;;;;;;;2.60;1.88;;;;;15.20;100340.00;;;;5049090;28;20282;-79
2022/04/05 03:38:02;;;;;;;3.67;2.28;;;;;15.20;100343.00;;;;5040156;28;20200;-79
2022/04/05 03:40:31;;;;;;;3.08;2.30;;;;;15.20;100335.00;;;;5046991;28;20199;-79
2022/04/05 03:43:00;;;;;;;3.20;2.50;;;;;15.20;100334.00;;;;5042468;28;20654;-79
2022/04/05 03:45:27;;;;;;;3.78;2.50;;;;;15.20;100330.00;;;;5049076;28;20200;-79
2022/04/05 03:47:54;;;;;;;3.35;2.10;;;;;15.20;100335.00;;;;5033694;28;20211;-79
2022/04/05 03:50:22;;;;;;;2.67;2.25;;;;;15.20;100333.00;;;;5045431;28;20625;-79
2022/04/05 03:52:49;;;;;;;4.63;2.55;;;;;15.20;100337.00;;;;5040308;28;20191;-79
2022/04/05 03:55:16;;;;;;;3.45;2.47;;;;;15.30;100323.00;;;;5049130;28;20198;-79
2022/04/05 03:57:44;;;;;;;3.65;2.78;;;;;15.30;100324.00;;;;5045037;28;20590;-79
2022/04/05 04:00:13;;;;;;;3.00;2.38;;;;;15.20;100318.00;;;;5042910;28;20192;-79
2022/04/05 04:02:41;;;;;;;2.97;2.38;;;;;15.30;100321.00;;;;5050848;28;20187;-79
2022/04/05 04:05:09;;;;;;;3.72;2.47;;;;;15.30;100319.00;;;;5068227;28;20195;-79
2022/04/05 04:07:39;;;;;;;2.85;2.38;;;;;15.20;100315.00;;;;5052326;28;20219;-79
2022/04/05 04:10:08;;;;;;;3.28;2.28;;;;;15.30;100312.00;;;;5041688;28;20261;-79
2022/04/05 04:12:35;;;;;;;3.70;2.80;;;;;15.30;100320.00;;;;5045515;28;20253;-79
2022/04/05 04:15:02;;;;;;;2.88;2.08;;;;;15.30;100313.00;;;;5051620;28;20199;-79
2022/04/05 04:17:31;;;;;;;2.83;2.10;;;;;15.30;100317.00;;;;5052019;28;20286;-80
2022/04/05 04:19:58;;;;;;;4.00;2.30;;;;;15.30;100305.00;;;;5036547;28;20620;-80
2022/04/05 04:22:26;;;;;;;2.88;2.40;;;;;15.30;100301.00;;;;5046336;28;20190;-79
2022/04/05 04:24:56;;;;;;;3.85;2.90;;;;;15.30;100307.00;;;;5046473;28;20196;-80
2022/04/05 04:27:24;;;;;;;3.83;2.75;;;;;15.30;100303.00;;;;5044832;28;20196;-80
2022/04/05 04:29:52;;;;;;;4.03;2.92;;;;;15.30;100313.00;;;;5053612;28;20199;-80
2022/04/05 04:32:19;;;;;;;4.85;2.95;;;;;15.30;100306.00;;;;5039494;28;20224;-80
2022/04/05 04:34:48;;;;;;;4.03;2.55;;;;;15.30;100308.00;;;;5043212;28;20196;-80
2022/04/05 04:37:15;;;;;;;3.55;2.63;;;;;15.30;100307.00;;;;5032058;28;20203;-79
2022/04/05 04:39:43;;;;;;;4.00;3.30;;;;;15.30;100303.00;;;;5036542;28;20696;-80
2022/04/05 04:42:12;;;;;;;4.43;3.10;;;;;15.30;100296.00;;;;5036312;28;20677;-80
2022/04/05 04:44:40;;;;;;;4.00;2.97;;;;;15.30;100303.00;;;;5049267;28;20277;-80
2022/04/05 04:47:08;;;;;;;5.50;3.08;;;;;15.30;100306.00;;;;5046161;28;21087;-80
2022/04/05 04:49:35;;;;;;;3.55;2.85;;;;;15.30;100308.00;;;;5044914;28;20204;-80
2022/04/05 04:52:05;;;;;;;4.55;3.15;;;;;15.30;100307.00;;;;5038891;28;20311;-79
2022/04/05 04:54:32;;;;;;;4.72;3.00;;;;;15.30;100301.00;;;;5034576;28;21098;-79
2022/04/05 04:56:59;;;;;;;2.92;2.50;;;;;15.30;100299.00;;;;5049023;28;20184;-79
2022/04/05 04:59:26;;;;;;;4.47;3.35;;;;;15.40;100301.00;;;;5036549;28;20606;-79
2022/04/05 05:01:54;;;;;;;4.25;3.15;;;;;15.40;100296.00;;;;5041964;28;20291;-79
2022/04/05 05:04:21;;;;;;;4.28;3.13;;;;;15.40;100302.00;;;;5047940;28;20684;-79
2022/04/05 05:06:48;;;;;;;3.42;3.00;;;;;15.40;100307.00;;;;5048317;28;21105;-80
2022/04/05 05:09:17;;;;;;;4.05;2.83;;;;;15.40;100303.00;;;;5039473;28;20228;-79
2022/04/05 05:11:45;;;;;;;4.15;3.05;;;;;15.40;100300.00;;;;5048015;28;20216;-77
2022/04/05 05:14:12;;;;;;;3.95;2.92;;;;;15.40;100299.00;;;;5047630;28;20282;-79
2022/04/05 05:16:39;;;;;;;3.70;2.97;;;;;15.40;100303.00;;;;5046707;28;20223;-80
2022/04/05 05:19:06;;;;;;;3.85;3.05;;;;;15.40;100302.00;;;;5044421;28;20592;-79
2022/04/05 05:21:34;;;;;;;4.93;3.92;;;;;15.30;100300.00;;;;5050171;28;20195;-79
2022/04/05 05:24:01;;;;;;;3.10;2.83;;;;;15.40;100303.00;;;;5062180;28;20885;-79
2022/04/05 05:26:29;;;;;;;3.85;3.08;;;;;15.40;100303.00;;;;5047472;28;20571;-80
2022/04/05 05:28:57;;;;;;;3.88;3.45;;;;;15.40;100302.00;;;;5049067;28;20204;-79
2022/04/05 05:31:24;;;;;;;3.85;3.03;;;;;15.40;100301.00;;;;5048024;28;20230;-80
2022/04/05 05:33:51;;;;;;;6.03;3.63;;;;;15.40;100304.00;;;;5047707;28;20204;-79
2022/04/05 05:36:19;;;;;;;8.05;3.85;;;;;15.40;100302.00;;;;5045935;28;20207;-80
2022/04/05 05:38:46;;;;;;;4.15;3.22;;;;;15.40;100308.00;;;;5045144;28;20195;-80
2022/04/05 05:41:13;;;;;;;4.00;3.03;;;;;15.40;100306.00;;;;5030515;28;20208;-79
2022/04/05 05:43:45;;;;;;;5.47;3.72;;;;;15.40;100312.00;;;;5045594;28;20230;-80
2022/04/05 05:46:14;;;;;;;6.43;4.03;;;;;15.50;100308.00;;;;5061083;28;20210;-81
2022/04/05 05:48:41;;;;;;;4.22;3.83;;;;;15.50;100310.00;;;;5047646;28;20623;-77
2022/04/05 05:51:09;;;;;;;5.35;3.60;;;;;15.50;100309.00;;;;5053821;28;20297;-79
2022/04/05 05:53:36;;;;;;;5.03;4.22;;;;;15.50;100312.00;;;;5066218;28;20201;-77
2022/04/05 05:56:04;;;;;;;4.22;3.65;;;;;15.50;100316.00;;;;5064020;28;20199;-80
2022/04/05 05:58:32;;;;;;;6.07;3.80;;;;;15.50;100316.00;;;;5048176;28;20286;-80
2022/04/05 06:01:00;;;;;;;4.38;3.17;;;;;15.50;100309.00;;;;5046268;28;22009;-79
2022/04/05 06:03:28;;;;;;;5.03;3.75;;;;;15.50;100317.00;;;;5051507;28;20215;-79
2022/04/05 06:05:55;;;;;;;5.95;3.70;;;;;15.60;100311.00;;;;5047508;28;20694;-81
2022/04/05 06:08:22;;;;;;;6.20;3.35;;;;;15.60;100323.00;;;;5037442;28;20589;-80
2022/04/05 06:10:50;;;;;;;5.07;3.47;;;;;15.60;100324.00;;;;5035092;28;20196;-79
2022/04/05 06:13:17;;;;;;;5.38;3.45;;;;;15.60;100320.00;;;;5047872;28;20193;-80
2022/04/05 06:15:44;;;;;;;6.25;3.60;;;;;15.70;100331.00;;;;5044661;28;20318;-80
2022/04/05 06:18:13;;;;;;;3.20;2.90;;;;;15.70;100325.00;;;;5028170;28;20228;-79
2022/04/05 06:20:40;;;;;;;6.47;3.45;;;;;15.70;100333.00;;;;5027022;28;20211;-79
2022/04/05 06:23:07;;;;;;;5.68;3.78;;;;;15.70;100333.00;;;;5027600;28;20228;-80
2022/04/05 06:25:37;;;;;;;4.53;2.97;;;;;15.70;100335.00;;;;5027600;28;20204;-80
2022/04/05 06:28:06;;;;;;;5.07;2.90;;;;;15.70;100340.00;;;;5039557;28;20234;-80
2022/04/05 06:30:35;;;;;;;3.45;2.85;;;;;15.70;100339.00;;;;5051246;28;20208;-80
2022/04/05 06:33:08;;;;;;;5.40;2.90;;;;;15.70;100341.00;;;;5050182;28;20231;-80
2022/04/05 06:35:38;;;;;;;3.63;2.67;;;;;15.70;100338.00;;;;5035403;28;20219;-80
2022/04/05 06:38:05;;;;;;;5.65;2.58;;;;;15.80;100343.00;;;;5050999;28;20666;-80
2022/04/05 06:40:33;;;;;;;3.53;2.60;;;;;15.80;100344.00;;;;5050772;28;20203;-80
2022/04/05 06:43:00;;;;;;;3.22;2.58;;;;;15.80;100345.00;;;;5051235;28;20199;-79
2022/04/05 06:45:28;;;;;;;3.75;2.42;;;;;15.90;100338.00;;;;5050812;28;20196;-78
2022/04/05 06:47:56;;;;;;;3.72;2.53;;;;;15.90;100344.00;;;;5051142;28;20579;-79
2022/04/05 06:50:25;;;;;;;5.70;2.83;;;;;15.90;100342.00;;;;5047549;28;20203;-78
2022/04/05 06:52:56;;;;;;;2.63;2.22;;;;;15.90;100350.00;;;;5031081;28;20690;-78
2022/04/05 06:55:24;;;;;;;4.82;2.55;;;;;15.90;100356.00;;;;5030935;28;20561;-78
2022/04/05 06:57:51;;;;;;;5.05;2.67;;;;;15.90;100350.00;;;;5040451;28;20211;-78
2022/04/05 07:00:22;;;;;;;4.35;2.55;;;;;15.90;100356.00;;;;5050217;28;20597;-78
2022/04/05 07:02:51;;;;;;;3.50;2.40;;;;;16.00;100357.00;;;;5050287;28;20192;-78
2022/04/05 07:05:19;;;;;;;2.75;2.25;;;;;16.00;100356.00;;;;5050359;28;20210;-78
2022/04/05 07:07:46;;;;;;;3.08;2.33;;;;;16.00;100357.00;;;;5046382;28;20232;-78
2022/04/05 07:10:17;;;;;;;6.43;3.00;;;;;16.00;100352.00;;;;5047135;28;20196;-78
2022/04/05 07:12:45;;;;;;;3.35;2.47;;;;;16.10;100345.00;;;;5049987;28;20219;-78
2022/04/05 07:15:12;;;;;;;3.67;2.67;;;;;16.10;100354.00;;;;5050448;28;20585;-78
2022/04/05 07:17:41;;;;;;;2.78;1.77;;;;;16.10;100358.00;;;;5050011;28;20549;-79
2022/04/05 07:20:10;;;;;;;4.38;2.13;;;;;16.20;100360.00;;;;5050608;28;20223;-78
2022/04/05 07:22:44;;;;;;;2.30;1.70;;;;;16.20;100354.00;;;;5050991;28;20203;-79
2022/04/05 07:25:11;;;;;;;2.40;1.80;;;;;16.20;100360.00;;;;5040458;28;20200;-79
2022/04/05 07:27:40;;;;;;;5.13;1.85;;;;;16.20;100364.00;;;;5030477;28;20885;-79
2022/04/05 07:30:09;;;;;;;2.08;1.88;;;;;16.20;100353.00;;;;5030438;28;20208;-79
2022/04/05 07:32:38;;;;;;;2.40;2.03;;;;;16.20;100354.00;;;;5029705;28;20220;-79
2022/04/05 07:35:06;;;;;;;3.72;2.10;;;;;16.20;100357.00;;;;5029724;28;20666;-79
2022/04/05 07:37:34;;;;;;;4.30;2.10;;;;;16.20;100354.00;;;;5030158;28;20207;-79
2022/04/05 07:40:03;;;;;;;3.28;2.30;;;;;16.30;100367.00;;;;5036052;28;20200;-79
2022/04/05 07:42:30;;;;;;;2.40;1.98;;;;;16.30;100360.00;;;;5036895;28;20669;-79
2022/04/05 07:44:59;;;;;;;7.20;2.63;;;;;16.30;100353.00;;;;5029627;28;20211;-79
2022/04/05 07:47:27;;;;;;;3.63;2.47;;;;;16.30;100366.00;;;;5029261;28;20196;-79
2022/04/05 07:49:54;;;;;;;2.28;1.92;;;;;16.30;100362.00;;;;5029975;28;20533;-79
2022/04/05 07:52:21;;;;;;;3.85;1.90;;;;;16.40;100359.00;;;;5030205;28;20219;-79
2022/04/05 07:54:49;;;;;;;4.50;2.75;;;;;16.40;100367.00;;;;5029880;28;20196;-80
2022/04/05 07:57:16;;;;;;;5.03;2.20;;;;;16.40;100372.00;;;;5029216;28;20227;-80
2022/04/05 07:59:44;;;;;;;2.92;2.30;;;;;16.30;100363.00;;;;5030759;28;20223;-79
2022/04/05 08:02:12;;;;;;;3.38;2.30;;;;;16.30;100372.00;;;;5030061;28;20702;-79
2022/04/05 08:04:39;;;;;;;2.10;1.60;;;;;16.30;100378.00;;;;5048883;28;20203;-79
2022/04/05 08:07:07;;;;;;;5.00;2.22;;;;;16.30;100365.00;;;;5049759;28;20191;-79
2022/04/05 08:09:34;;;;;;;2.28;1.70;;;;;16.30;100366.00;;;;5049583;28;20601;-79
2022/04/05 08:12:02;;;;;;;4.43;1.95;;;;;16.30;100370.00;;;;5048510;28;20231;-78
2022/04/05 08:14:31;;;;;;;3.17;2.10;;;;;16.40;100381.00;;;;5049583;28;20637;-78
2022/04/05 08:17:01;;;;;;;2.83;1.60;;;;;16.40;100372.00;;;;5032998;28;20208;-78
2022/04/05 08:19:30;;;;;;;1.63;1.13;;;;;16.50;100374.00;;;;5028896;28;20636;-79
2022/04/05 08:21:57;;;;;;;1.95;1.75;;;;;16.50;100371.00;;;;5046546;28;20203;-78
2022/04/05 08:24:24;;;;;;;2.63;1.70;;;;;16.60;100373.00;;;;5049129;28;20211;-79
2022/04/05 08:26:52;;;;;;;2.55;1.80;;;;;16.70;100367.00;;;;5049471;28;21197;-79
2022/04/05 08:29:19;;;;;;;5.03;2.03;;;;;16.80;100368.00;;;;5048719;28;20661;-79
2022/04/05 08:31:46;;;;;;;4.97;1.83;;;;;16.80;100373.00;;;;5048849;28;20199;-79
2022/04/05 08:34:13;;;;;;;3.38;1.88;;;;;16.80;100376.00;;;;5030273;28;20208;-79
2022/04/05 08:36:42;;;;;;;3.25;1.40;;;;;16.80;100379.00;;;;5029561;28;21004;-79
2022/04/05 08:39:09;;;;;;;4.47;1.88;;;;;16.90;100377.00;;;;5030139;28;20192;-79
2022/04/05 08:41:38;;;;;;;2.13;1.60;;;;;16.90;100374.00;;;;5048196;28;20557;-79
2022/04/05 08:44:06;;;;;;;2.58;1.67;;;;;16.90;100378.00;;;;5048039;28;20282;-79
2022/04/05 08:46:35;;;;;;;1.95;1.50;;;;;16.90;100380.00;;;;5045152;28;20223;-79
2022/04/05 08:49:03;;;;;;;2.72;1.52;;;;;17.00;100382.00;;;;5041453;28;20210;-79
2022/04/05 08:51:31;;;;;;;3.28;2.10;;;;;17.00;100383.00;;;;5048191;28;20218;-79
2022/04/05 08:54:00;;;;;;;2.03;1.40;;;;;17.10;100384.00;;;;5048814;28;20220;-79
2022/04/05 08:56:30;;;;;;;1.90;1.27;;;;;17.10;100374.00;;;;5048247;28;20856;-79
2022/04/05 08:58:58;;;;;;;3.30;1.70;;;;;17.10;100386.00;;;;5048564;28;20243;-79
2022/04/05 09:01:29;;;;;;;3.28;1.30;;;;;17.20;100388.00;;;;5048682;28;20257;-79
2022/04/05 09:03:56;;;;;;;2.33;1.52;;;;;17.20;100386.00;;;;5048758;28;20195;-79
2022/04/05 09:06:29;;;;;;;3.10;1.65;;;;;17.10;100391.00;;;;5047580;28;20199;-78
2022/04/05 09:09:08;;;;;;;2.20;1.63;;;;;17.10;100391.00;;;;5047910;28;20617;-79
2022/04/05 09:11:42;;;;;;;3.35;1.50;;;;;17.20;100394.00;;;;5039235;28;20183;-79
2022/04/05 09:14:09;;;;;;;3.28;2.45;;;;;17.20;100397.00;;;;5048019;28;20204;-79
2022/04/05 09:16:37;;;;;;;2.10;1.80;;;;;17.20;100395.00;;;;5047228;28;20204;-78
2022/04/05 09:19:12;;;;;;;1.83;1.63;;;;;17.10;100392.00;;;;5047719;28;20219;-79
2022/04/05 09:21:55;;;;;;;5.20;1.83;;;;;17.10;100405.00;;;;5047862;28;20207;-78
2022/04/05 09:24:33;;;;;;;2.20;1.83;;;;;17.10;100402.00;;;;5036384;28;20212;-77
2022/04/05 09:27:01;;;;;;;1.85;1.65;;;;;17.20;100399.00;;;;5037833;28;20229;-78
2022/04/05 09:29:39;;;;;;;2.20;1.70;;;;;17.10;100408.00;;;;5047551;28;20191;-79
2022/04/05 09:32:07;;;;;;;5.53;2.10;;;;;17.20;100401.00;;;;5047385;28;20245;-78
2022/04/05 09:34:47;;;;;;;3.75;1.98;;;;;17.20;100403.00;;;;5047612;28;20211;-79
2022/04/05 09:37:15;;;;;;;5.07;1.95;;;;;17.20;100405.00;;;;5047432;28;20199;-79
2022/04/05 09:39:44;;;;;;;2.83;1.60;;;;;17.20;100414.00;;;;5043567;28;20211;-78
2022/04/05 09:42:11;;;;;;;2.88;2.22;;;;;17.20;100414.00;;;;5029402;28;20208;-78
2022/04/05 09:44:42;;;;;;;2.20;1.77;;;;;17.20;100415.00;;;;5027656;28;20200;-79
2022/04/05 09:47:10;;;;;;;2.85;1.77;;;;;17.20;100411.00;;;;5027563;28;20650;-79
2022/04/05 09:49:39;;;;;;;2.83;2.50;;;;;17.30;100413.00;;;;5045828;28;20200;-79
2022/04/05 09:52:22;;;;;;;2.88;1.88;;;;;17.20;100416.00;;;;5047868;28;20188;-79
2022/04/05 09:54:51;;;;;;;3.63;1.88;;;;;17.30;100412.00;;;;5047405;28;20207;-79
2022/04/05 09:57:30;;;;;;;4.60;1.90;;;;;17.20;100412.00;;;;5044330;28;20207;-78
2022/04/05 10:00:08;;;;;;;2.78;1.92;;;;;17.20;100411.00;;;;5039092;28;20211;-78
2022/04/05 10:02:36;;;;;;;11.80;2.20;;;;;17.30;100418.00;;;;5049118;28;20853;-78
2022/04/05 10:05:08;;;;;;;2.78;2.33;;;;;17.30;100413.00;;;;5051374;28;20253;-79
2022/04/05 10:07:35;;;;;;;2.33;1.70;;;;;17.40;100410.00;;;;5049991;28;20713;-78
2022/04/05 10:10:07;;;;;;;3.33;1.95;;;;;17.40;100414.00;;;;5051501;28;20212;-78
2022/04/05 10:12:35;;;;;;;2.88;1.60;;;;;17.40;100419.00;;;;5050524;28;20242;-78
2022/04/05 10:15:03;;;;;;;3.90;2.20;;;;;17.50;100414.00;;;;5042571;28;20212;-79
2022/04/05 10:17:31;;;;;;;2.30;1.90;;;;;17.50;100407.00;;;;5030555;28;20215;-78
2022/04/05 10:19:58;;;;;;;2.58;1.77;;;;;17.50;100415.00;;;;5031549;28;20220;-78
2022/04/05 10:22:26;;;;;;;2.38;1.85;;;;;17.50;100404.00;;;;5031042;28;20206;-78
2022/04/05 10:24:55;;;;;;;4.00;1.95;;;;;17.40;100407.00;;;;5031132;28;20216;-78
2022/04/05 10:27:25;;;;;;;3.78;2.03;;;;;17.40;100416.00;;;;5031348;28;20197;-78
2022/04/05 10:29:58;;;;;;;2.42;1.77;;;;;17.40;100417.00;;;;5041514;28;20257;-78
2022/04/05 10:32:33;;;;;;;4.10;2.10;;;;;17.40;100413.00;;;;5044177;28;20204;-78
2022/04/05 10:35:04;;;;;;;3.17;2.10;;;;;17.40;100416.00;;;;5050331;28;20213;-78
2022/04/05 10:37:33;;;;;;;3.20;2.05;;;;;17.40;100422.00;;;;5050823;28;20187;-78
2022/04/05 10:40:20;;;;;;;2.55;2.10;;;;;17.30;100415.00;;;;5051275;28;20196;-78
2022/04/05 10:42:52;;;;;;;2.28;1.55;;;;;17.40;100432.00;;;;5050956;28;20204;-78
2022/04/05 10:45:20;;;;;;;2.22;1.65;;;;;17.40;100425.00;;;;5050822;28;20199;-78
2022/04/05 10:47:58;;;;;;;2.63;1.80;;;;;17.40;100423.00;;;;5050924;28;20199;-78
2022/04/05 10:50:25;;;;;;;3.92;1.75;;;;;17.40;100430.00;;;;5031591;28;20207;-78
2022/04/05 10:53:21;;;;;;;2.75;1.92;;;;;17.30;100418.00;;;;5031671;28;20224;-78
2022/04/05 10:56:14;;;;;;;2.70;1.38;;;;;17.30;100412.00;;;;5030583;28;20610;-78
2022/04/05 10:59:18;;;;;;;2.55;1.38;;;;;17.30;100428.00;;;;5031188;28;20200;-78
2022/04/05 11:01:45;;;;;;;3.53;1.73;;;;;17.40;100426.00;;;;5030958;28;20564;-78
2022/04/05 11:04:34;;;;;;;5.70;1.52;;;;;17.30;100415.00;;;;5030389;28;20254;-78
2022/04/05 11:07:12;;;;;;;2.60;1.90;;;;;17.40;100424.00;;;;5039625;28;20666;-78
2022/04/05 11:09:50;;;;;;;4.50;1.70;;;;;17.40;100418.00;;;;5030269;28;20196;-78
2022/04/05 11:12:23;;;;;;;3.80;1.85;;;;;17.50;100424.00;;;;5045267;28;20196;-78
2022/04/05 11:14:54;;;;;;;3.35;1.40;;;;;17.60;100433.00;;;;5050240;28;20191;-77
2022/04/05 11:17:23;;;;;;;4.15;1.60;;;;;17.70;100427.00;;;;5049215;28;20211;-77
2022/04/05 11:19:52;;;;;;;2.88;1.90;;;;;17.80;100414.00;;;;5049557;28;20215;-78
2022/04/05 11:22:39;;;;;;;2.08;1.42;;;;;17.70;100417.00;;;;5047031;28;20211;-78
2022/04/05 11:25:09;;;;;;;2.47;1.38;;;;;17.90;100420.00;;;;5030166;28;20200;-79
2022/04/05 11:27:42;;;;;;;1.77;1.50;;;;;18.00;100420.00;;;;5029775;28;20197;-79
2022/04/05 11:30:46;;;;;;;1.80;1.60;;;;;18.00;100422.00;;;;5044935;28;20281;-78
2022/04/05 11:33:45;;;;;;;1.63;1.33;;;;;18.10;100419.00;;;;5022862;28;20984;-78
2022/04/05 11:36:14;;;;;;;4.22;1.48;;;;;18.20;100416.00;;;;5029511;28;20204;-78
2022/04/05 11:38:43;;;;;;;3.47;1.85;;;;;18.30;100411.00;;;;5029249;28;20211;-78
2022/04/05 11:41:12;;;;;;;2.13;1.50;;;;;18.30;100417.00;;;;5030176;28;20296;-78
2022/04/05 11:43:42;;;;;;;4.18;1.70;;;;;18.40;100411.00;;;;5033138;28;20199;-78
2022/04/05 11:46:13;;;;;;;3.05;1.77;;;;;18.40;100414.00;;;;5049323;28;20196;-78
2022/04/05 11:48:44;;;;;;;4.57;2.38;;;;;18.40;100418.00;;;;5043948;28;20596;-78
2022/04/05 11:51:14;;;;;;;1.88;1.63;;;;;18.40;100416.00;;;;5030125;28;20655;-79
2022/04/05 11:53:42;;;;;;;3.55;1.55;;;;;18.40;100410.00;;;;5031220;28;20230;-78
2022/04/05 11:56:17;;;;;;;3.22;1.80;;;;;18.40;100418.00;;;;5048551;28;20203;-78
2022/04/05 11:58:47;;;;;;;3.33;1.95;;;;;18.40;100420.00;;;;5048222;28;20203;-78
2022/04/05 12:01:19;;;;;;;2.30;1.55;;;;;18.40;100406.00;;;;5048998;28;20208;-78
2022/04/05 12:03:50;;;;;;;2.65;1.63;;;;;18.40;100410.00;;;;5049608;28;20208;-78
2022/04/05 12:06:21;;;;;;;2.97;1.98;;;;;18.40;100411.00;;;;5049069;28;20191;-77
2022/04/05 12:08:50;;;;;;;2.35;1.80;;;;;18.40;100412.00;;;;5049627;28;20226;-78
2022/04/05 12:11:20;;;;;;;2.85;1.70;;;;;18.30;100419.00;;;;5048603;28;20196;-78
2022/04/05 12:13:56;;;;;;;5.03;2.00;;;;;18.20;100415.00;;;;5048381;28;20223;-78
2022/04/05 12:16:24;;;;;;;3.97;1.80;;;;;18.30;100422.00;;;;5048423;28;20552;-78
2022/04/05 12:18:54;;;;;;;2.58;1.77;;;;;18.30;100417.00;;;;5049532;28;20223;-78